createdAt,value
2017-06-04T17:17:38.207Z,2220
2017-06-04T17:18:18.856Z,2212
2017-06-04T17:18:59.413Z,2212
2017-06-04T17:20:01.278Z,2212
2017-06-04T17:20:42.895Z,2212
2017-06-04T17:21:26.571Z,2220
2017-06-04T17:22:08.779Z,2228
2017-06-04T17:23:00.377Z,2240
2017-06-04T17:23:41.305Z,2228
2017-06-04T17:24:21.668Z,2200
2017-06-04T17:25:02.211Z,2160
2017-06-04T17:25:44.525Z,2116
2017-06-04T17:26:25.116Z,2084
2017-06-04T17:27:07.453Z,2056
2017-06-04T17:27:49.042Z,2040
2017-06-04T17:28:30.530Z,2016
2017-06-04T17:29:11.061Z,2000
2017-06-04T17:29:58.569Z,2000
2017-06-04T17:30:40.095Z,2008
2017-06-04T17:31:28.723Z,2036
2017-06-04T17:32:27.861Z,2032
2017-06-04T17:34:58.998Z,2068
2017-06-04T17:35:41.552Z,2068
2017-06-04T17:36:33.059Z,2068
2017-06-04T17:37:13.832Z,2052
2017-06-04T17:37:55.577Z,2048
2017-06-04T17:38:36.131Z,2052
2017-06-04T17:39:19.516Z,2060
2017-06-04T17:40:07.568Z,2064
2017-06-04T17:40:47.912Z,2044
2017-06-04T17:41:31.911Z,2028
2017-06-04T17:42:12.498Z,2000
2017-06-04T17:42:54.669Z,1960
2017-06-04T17:43:35.251Z,1928
2017-06-04T17:45:58.730Z,1856
2017-06-04T17:46:39.257Z,1832
2017-06-04T17:47:19.773Z,1812
2017-06-04T17:48:00.351Z,1796
2017-06-04T17:50:13.796Z,1752
2017-06-04T17:50:54.236Z,1728
2017-06-04T17:51:34.776Z,1692
2017-06-04T17:52:19.628Z,1660
2017-06-04T17:53:01.237Z,1636
2017-06-04T17:53:41.706Z,1612
2017-06-04T17:54:22.259Z,1596
2017-06-04T17:55:02.750Z,1604
2017-06-04T17:55:48.769Z,1612
2017-06-04T17:56:30.195Z,1628
2017-06-04T17:57:10.745Z,1636
2017-06-04T17:57:51.194Z,1648
2017-06-04T17:58:35.201Z,1644
2017-06-04T17:59:15.673Z,1620
2017-06-04T17:59:56.207Z,1596
2017-06-04T18:00:36.709Z,1592
2017-06-04T18:01:17.194Z,1580
2017-06-04T18:01:57.772Z,1560
2017-06-04T18:02:38.462Z,1532
2017-06-04T18:05:06.034Z,1524
2017-06-04T18:05:49.109Z,1540
2017-06-04T18:06:29.743Z,1548
2017-06-04T18:07:10.161Z,1548
2017-06-04T18:07:57.576Z,1536
2017-06-04T18:08:38.124Z,1516
2017-06-04T18:09:18.559Z,1492
2017-06-04T18:09:59.052Z,1440
2017-06-04T18:10:39.516Z,1400
2017-06-04T18:11:20.331Z,1360
2017-06-04T18:12:05.713Z,1324
2017-06-04T18:15:02.572Z,1208
2017-06-04T18:15:43.261Z,1184
2017-06-04T18:16:23.753Z,1160
2017-06-04T18:17:04.343Z,1140
2017-06-04T18:17:44.766Z,1124
2017-06-04T18:18:25.270Z,1116
2017-06-04T18:19:05.902Z,1100
2017-06-04T18:19:46.305Z,1084
2017-06-04T18:20:26.728Z,1076
2017-06-04T18:21:07.325Z,1076
2017-06-04T18:21:47.827Z,1076
2017-06-04T18:22:28.311Z,1084
2017-06-04T18:23:08.878Z,1096
2017-06-04T18:23:49.422Z,1104
2017-06-04T18:24:29.973Z,1112
2017-06-04T18:25:10.306Z,1120
2017-06-04T18:25:50.850Z,1104
2017-06-04T18:26:31.395Z,1092
2017-06-04T18:27:12.004Z,1072
2017-06-04T18:27:52.583Z,1052
2017-06-04T18:28:33.470Z,1036
2017-06-04T18:29:14.158Z,1024
2017-06-04T18:29:54.634Z,1004
2017-06-04T18:30:35.783Z,968
2017-06-04T18:31:16.123Z,948
2017-06-04T18:31:56.629Z,916
2017-06-04T18:32:37.518Z,884
2017-06-04T18:33:18.650Z,860
2017-06-04T18:33:59.226Z,844
2017-06-04T18:34:39.996Z,816
2017-06-04T18:35:20.551Z,804
2017-06-04T18:36:01.202Z,788
2017-06-04T18:36:41.793Z,772
2017-06-04T18:37:22.331Z,748
2017-06-04T18:38:02.790Z,728
2017-06-04T18:38:43.220Z,716
2017-06-04T18:39:23.882Z,700
2017-06-04T18:40:04.547Z,684
2017-06-04T18:40:45.371Z,668
2017-06-04T18:41:26.190Z,648
2017-06-04T18:42:06.557Z,628
2017-06-04T18:42:47.039Z,612
2017-06-04T18:43:27.985Z,600
2017-06-04T18:44:08.461Z,588
2017-06-04T18:44:49.728Z,576
2017-06-04T18:45:30.307Z,568
2017-06-04T18:46:10.796Z,560
2017-06-04T18:46:51.493Z,556
2017-06-04T18:47:32.077Z,556
2017-06-04T18:48:12.600Z,556
2017-06-04T18:48:53.432Z,556
2017-06-04T18:49:34.168Z,556
2017-06-04T18:50:15.747Z,560
2017-06-04T18:50:56.188Z,548
2017-06-04T18:51:36.648Z,544
2017-06-04T18:52:17.143Z,532
2017-06-04T18:52:57.635Z,516
2017-06-04T18:53:38.195Z,504
2017-06-04T18:54:22.590Z,492
2017-06-04T18:55:03.286Z,480
2017-06-04T18:55:44.383Z,464
2017-06-04T18:56:24.777Z,456
2017-06-04T18:57:05.698Z,444
2017-06-04T18:57:46.778Z,436
2017-06-04T18:58:27.534Z,428
2017-06-04T18:59:08.302Z,424
2017-06-04T18:59:49.090Z,412
2017-06-04T19:00:30.452Z,404
2017-06-04T19:01:11.021Z,388
2017-06-04T19:01:52.101Z,380
2017-06-04T19:02:33.721Z,364
2017-06-04T19:03:14.580Z,352
2017-06-04T19:03:56.786Z,340
2017-06-04T19:04:38.543Z,324
2017-06-04T19:11:44.121Z,236
2017-06-04T19:12:24.899Z,228
2017-06-04T19:13:06.016Z,220
2017-06-04T19:13:47.007Z,208
2017-06-04T19:14:28.026Z,200
2017-06-04T19:15:09.169Z,188
2017-06-04T19:15:50.773Z,184
2017-06-04T19:16:33.277Z,176
2017-06-04T19:17:14.283Z,172
2017-06-04T19:17:55.634Z,164
2017-06-04T19:18:36.306Z,160
2017-06-04T19:19:17.200Z,152
2017-06-04T19:19:59.947Z,144
2017-06-04T19:20:40.447Z,140
2017-06-04T19:21:21.275Z,132
2017-06-04T19:22:08.909Z,124
2017-06-04T19:22:49.732Z,120
2017-06-04T19:23:30.190Z,112
2017-06-04T19:24:12.593Z,104
2017-06-04T19:24:53.239Z,96
2017-06-04T19:25:33.610Z,92
2017-06-04T19:26:16.194Z,84
2017-06-04T19:26:58.519Z,80
2017-06-04T19:30:36.952Z,56
2017-06-04T19:31:21.424Z,52
2017-06-04T19:32:01.238Z,48
2017-06-04T19:32:41.895Z,44
2017-06-04T19:33:24.141Z,44
2017-06-04T19:34:04.533Z,40
2017-06-04T19:34:45.818Z,36
2017-06-04T19:35:26.785Z,36
2017-06-04T19:36:07.400Z,32
2017-06-04T19:36:47.842Z,32
2017-06-04T19:37:29.923Z,24
2017-06-04T19:38:59.194Z,24
2017-06-04T19:40:01.980Z,20
2017-06-04T19:43:55.628Z,12
2017-06-04T19:44:36.349Z,12
2017-06-04T19:45:17.260Z,12
2017-06-04T19:45:58.117Z,12
2017-06-04T19:46:38.711Z,8
2017-06-04T19:47:19.249Z,8
2017-06-04T19:47:59.665Z,8
2017-06-04T19:48:40.440Z,8
2017-06-04T19:49:20.850Z,8
2017-06-04T19:50:01.518Z,4
2017-06-04T19:50:42.214Z,4
2017-06-04T19:51:22.815Z,4
2017-06-04T19:52:03.230Z,4
2017-06-04T19:52:43.643Z,4
2017-06-04T19:53:24.242Z,4
2017-06-04T19:54:04.959Z,4
2017-06-04T19:54:45.477Z,4
2017-06-04T19:55:26.253Z,4
2017-06-04T19:56:06.686Z,0
2017-06-04T19:56:47.280Z,0
2017-06-04T19:57:27.873Z,4
2017-06-04T19:58:08.376Z,4
2017-06-04T19:58:49.043Z,4
2017-06-04T19:59:29.702Z,4
2017-06-04T20:00:10.369Z,0
2017-06-04T20:00:50.984Z,0
2017-06-04T20:01:31.759Z,0
2017-06-04T20:02:12.289Z,0
2017-06-04T20:02:52.955Z,0
2017-06-04T20:03:33.832Z,0
2017-06-04T20:04:14.407Z,0
2017-06-04T20:04:55.094Z,0
2017-06-04T20:05:35.682Z,0
2017-06-04T20:06:16.212Z,0
2017-06-04T20:06:56.623Z,0
2017-06-04T20:07:38.255Z,0
2017-06-04T20:08:18.822Z,0
2017-06-04T20:09:00.169Z,0
2017-06-04T20:09:40.559Z,0
2017-06-04T20:10:21.164Z,0
2017-06-04T20:11:01.911Z,0
2017-06-04T20:11:42.407Z,0
2017-06-04T20:14:16.468Z,0
2017-06-04T20:16:58.803Z,0
2017-06-04T20:17:39.220Z,0
2017-06-04T20:18:21.873Z,0
2017-06-04T20:19:02.588Z,0
2017-06-04T20:19:46.059Z,0
2017-06-04T20:20:28.520Z,0
2017-06-04T20:21:09.436Z,0
2017-06-04T20:21:53.822Z,0
2017-06-04T20:26:22.501Z,0
2017-06-04T20:27:06.070Z,0
2017-06-04T20:27:46.587Z,0
2017-06-04T20:28:27.475Z,0
2017-06-04T20:29:08.221Z,0
2017-06-04T20:29:53.937Z,0
2017-06-04T20:35:15.940Z,0
2017-06-04T20:40:57.539Z,0
2017-06-04T20:41:37.847Z,0
2017-06-04T20:42:18.459Z,0
2017-06-04T20:43:03.129Z,0
2017-06-04T20:43:46.945Z,0
2017-06-04T20:44:27.387Z,0
2017-06-04T20:45:08.202Z,0
2017-06-04T20:45:49.082Z,0
2017-06-04T20:46:30.086Z,0
2017-06-04T20:47:10.675Z,0
2017-06-04T20:47:51.438Z,0
2017-06-04T20:48:35.756Z,0
2017-06-04T20:49:16.217Z,0
2017-06-04T20:49:58.309Z,0
2017-06-04T20:50:40.490Z,0
2017-06-04T20:51:21.204Z,0
2017-06-04T20:52:01.734Z,0
2017-06-04T20:52:42.320Z,0
2017-06-04T20:53:22.877Z,0
2017-06-04T20:54:03.605Z,0
2017-06-04T20:54:44.121Z,0
2017-06-04T20:55:24.617Z,0
2017-06-04T20:56:05.411Z,0
2017-06-04T20:56:48.400Z,0
2017-06-04T20:57:28.982Z,0
2017-06-04T20:58:19.881Z,0
2017-06-04T20:59:11.290Z,0
2017-06-04T20:59:51.926Z,0
2017-06-04T21:00:34.200Z,0
2017-06-04T21:01:15.342Z,0
2017-06-04T21:01:55.926Z,0
2017-06-04T21:02:36.613Z,0
2017-06-04T21:03:17.130Z,0
2017-06-04T21:03:59.739Z,0
2017-06-04T21:04:41.847Z,0
2017-06-04T21:05:22.459Z,0
2017-06-04T21:06:03.011Z,0
2017-06-04T21:06:43.555Z,0
2017-06-04T21:07:24.044Z,0
2017-06-04T21:08:04.667Z,0
2017-06-04T21:08:45.316Z,0
2017-06-04T21:09:26.430Z,0
2017-06-04T21:10:07.046Z,0
2017-06-04T21:10:48.316Z,0
2017-06-04T21:13:06.484Z,0
2017-06-04T21:13:47.366Z,0
2017-06-04T21:14:27.788Z,0
2017-06-04T21:15:08.281Z,0
2017-06-04T21:15:48.815Z,0
2017-06-04T21:16:29.366Z,0
2017-06-04T21:17:09.891Z,0
2017-06-04T21:17:50.355Z,0
2017-06-04T21:18:31.159Z,0
2017-06-04T21:19:11.705Z,0
2017-06-04T21:19:52.227Z,0
2017-06-04T21:20:32.702Z,0
2017-06-04T21:21:13.520Z,0
2017-06-04T21:21:54.504Z,0
2017-06-04T21:22:35.014Z,0
2017-06-04T21:23:15.597Z,0
2017-06-04T21:23:56.068Z,0
2017-06-04T21:24:37.117Z,0
2017-06-04T21:25:17.587Z,0
2017-06-04T21:25:58.103Z,0
2017-06-04T21:26:38.564Z,0
2017-06-04T21:27:19.262Z,0
2017-06-04T21:27:59.789Z,0
2017-06-04T21:28:40.169Z,0
2017-06-04T21:29:20.689Z,0
2017-06-04T21:30:01.303Z,0
2017-06-04T21:30:42.066Z,0
2017-06-04T21:31:22.550Z,0
2017-06-04T21:32:03.104Z,0
2017-06-04T21:32:43.626Z,0
2017-06-04T21:33:24.641Z,0
2017-06-04T21:34:05.135Z,0
2017-06-04T21:34:45.802Z,0
2017-06-04T21:35:26.325Z,0
2017-06-04T21:36:06.787Z,0
2017-06-04T21:36:47.244Z,0
2017-06-04T21:37:27.833Z,0
2017-06-04T21:38:08.505Z,0
2017-06-04T21:38:49.052Z,0
2017-06-04T21:39:29.636Z,0
2017-06-04T21:40:10.099Z,0
2017-06-04T21:40:50.562Z,0
2017-06-04T21:41:31.080Z,0
2017-06-04T21:42:11.624Z,0
2017-06-04T21:42:52.097Z,0
2017-06-04T21:43:32.634Z,0
2017-06-04T21:44:13.107Z,0
2017-06-04T21:44:53.726Z,0
2017-06-04T21:45:34.111Z,0
2017-06-04T21:46:14.647Z,0
2017-06-04T21:46:55.163Z,0
2017-06-04T21:47:35.640Z,0
2017-06-04T21:48:16.120Z,0
2017-06-04T21:48:56.717Z,0
2017-06-04T21:49:37.300Z,0
2017-06-04T21:50:18.034Z,0
2017-06-04T21:50:58.603Z,0
2017-06-04T21:51:39.096Z,0
2017-06-04T21:52:19.694Z,0
2017-06-04T21:53:00.300Z,0
2017-06-04T21:53:40.841Z,0
2017-06-04T21:54:21.300Z,0
2017-06-04T21:55:01.789Z,0
2017-06-04T21:55:42.277Z,0
2017-06-04T21:56:22.965Z,0
2017-06-04T21:57:03.460Z,0
2017-06-04T21:57:44.322Z,0
2017-06-04T21:58:24.791Z,0
2017-06-04T21:59:05.264Z,0
2017-06-04T21:59:45.808Z,0
2017-06-04T22:00:26.272Z,0
2017-06-04T22:01:06.822Z,0
2017-06-04T22:01:47.337Z,0
2017-06-04T22:02:27.862Z,0
2017-06-04T22:03:08.866Z,0
2017-06-04T22:03:48.801Z,0
2017-06-04T22:04:29.270Z,0
2017-06-04T22:05:09.811Z,0
2017-06-04T22:05:50.315Z,0
2017-06-04T22:06:30.767Z,0
2017-06-04T22:07:11.254Z,0
2017-06-04T22:07:51.790Z,0
2017-06-04T22:08:32.358Z,0
2017-06-04T22:09:12.803Z,0
2017-06-04T22:09:53.315Z,0
2017-06-04T22:10:33.947Z,0
2017-06-04T22:11:14.406Z,0
2017-06-04T22:11:54.901Z,0
2017-06-04T22:12:35.416Z,0
2017-06-04T22:13:15.987Z,0
2017-06-04T22:13:56.508Z,0
2017-06-04T22:14:37.051Z,0
2017-06-04T22:15:17.675Z,0
2017-06-04T22:15:58.246Z,0
2017-06-04T22:16:38.807Z,0
2017-06-04T22:17:19.295Z,0
2017-06-04T22:18:01.091Z,0
2017-06-04T22:18:43.446Z,0
2017-06-04T22:19:23.966Z,0
2017-06-04T22:20:04.377Z,0
2017-06-04T22:20:44.892Z,0
2017-06-04T22:21:25.392Z,0
2017-06-04T22:22:06.022Z,0
2017-06-04T22:22:46.453Z,0
2017-06-04T22:23:26.969Z,0
2017-06-04T22:24:07.552Z,0
2017-06-04T22:24:48.165Z,0
2017-06-04T22:25:30.328Z,0
2017-06-04T22:26:12.720Z,0
2017-06-04T22:26:57.583Z,0
2017-06-04T22:27:38.211Z,0
2017-06-04T22:28:19.325Z,0
2017-06-04T22:28:59.664Z,0
2017-06-04T22:29:40.093Z,0
2017-06-04T22:30:20.602Z,0
2017-06-04T22:31:02.281Z,0
2017-06-04T22:31:44.872Z,0
2017-06-04T22:32:25.753Z,0
2017-06-04T22:33:06.286Z,0
2017-06-04T22:33:46.833Z,0
2017-06-04T22:34:27.334Z,0
2017-06-04T22:35:07.884Z,0
2017-06-04T22:35:48.391Z,0
2017-06-04T22:36:28.978Z,0
2017-06-04T22:37:09.535Z,0
2017-06-04T22:37:50.021Z,0
2017-06-04T22:38:30.612Z,0
2017-06-04T22:39:11.092Z,0
2017-06-04T22:39:51.638Z,0
2017-06-04T22:40:32.073Z,0
2017-06-04T22:41:12.545Z,0
2017-06-04T22:41:53.099Z,0
2017-06-04T22:42:33.697Z,0
2017-06-04T22:43:14.168Z,0
2017-06-04T22:43:54.659Z,0
2017-06-04T22:44:35.164Z,0
2017-06-04T22:45:15.669Z,0
2017-06-04T22:45:56.162Z,0
2017-06-04T22:46:36.682Z,0
2017-06-04T22:47:17.167Z,0
2017-06-04T22:47:57.685Z,0
2017-06-04T22:48:38.203Z,0
2017-06-04T22:49:18.628Z,0
2017-06-04T22:49:59.100Z,0
2017-06-04T22:50:39.711Z,0
2017-06-04T22:51:20.087Z,0
2017-06-04T22:52:00.622Z,0
2017-06-04T22:52:41.161Z,0
2017-06-04T22:53:21.627Z,0
2017-06-04T22:54:02.091Z,0
2017-06-04T22:54:42.589Z,0
2017-06-04T22:55:23.090Z,0
2017-06-04T22:56:03.663Z,0
2017-06-04T22:56:44.172Z,0
2017-06-04T22:57:24.615Z,0
2017-06-04T22:58:05.203Z,0
2017-06-04T22:58:45.606Z,0
2017-06-04T22:59:26.058Z,0
2017-06-04T23:00:06.561Z,0
2017-06-04T23:00:47.264Z,0
2017-06-04T23:03:07.106Z,0
2017-06-04T23:05:07.050Z,0
2017-06-04T23:05:48.223Z,0
2017-06-04T23:06:28.639Z,0
2017-06-04T23:07:09.222Z,0
2017-06-04T23:07:49.741Z,0
2017-06-04T23:08:30.306Z,0
2017-06-04T23:09:10.841Z,0
2017-06-04T23:09:51.436Z,0
2017-06-04T23:10:31.931Z,0
2017-06-04T23:11:12.407Z,0
2017-06-04T23:11:53.073Z,0
2017-06-04T23:12:33.629Z,0
2017-06-04T23:13:14.312Z,0
2017-06-04T23:13:54.779Z,0
2017-06-04T23:14:35.241Z,0
2017-06-04T23:15:15.788Z,0
2017-06-04T23:15:56.203Z,0
2017-06-04T23:16:36.678Z,0
2017-06-04T23:17:17.178Z,0
2017-06-04T23:17:57.681Z,0
2017-06-04T23:18:38.141Z,0
2017-06-04T23:19:18.676Z,0
2017-06-04T23:19:59.175Z,0
2017-06-04T23:20:39.741Z,0
2017-06-04T23:21:20.245Z,0
2017-06-04T23:22:00.712Z,0
2017-06-04T23:22:41.203Z,0
2017-06-04T23:23:21.715Z,0
2017-06-04T23:24:02.209Z,0
2017-06-04T23:24:42.711Z,0
2017-06-04T23:25:23.254Z,0
2017-06-04T23:26:03.782Z,0
2017-06-04T23:26:44.366Z,0
2017-06-04T23:27:24.853Z,0
2017-06-04T23:28:05.355Z,0
2017-06-04T23:28:45.834Z,0
2017-06-04T23:29:26.376Z,0
2017-06-04T23:30:06.866Z,0
2017-06-04T23:30:47.351Z,0
2017-06-04T23:31:27.843Z,0
2017-06-04T23:32:08.349Z,0
2017-06-04T23:32:48.815Z,0
2017-06-04T23:33:29.337Z,0
2017-06-04T23:34:09.849Z,0
2017-06-04T23:34:50.419Z,0
2017-06-04T23:35:30.809Z,0
2017-06-04T23:36:11.453Z,0
2017-06-04T23:36:51.932Z,0
2017-06-04T23:37:32.532Z,0
2017-06-04T23:38:13.070Z,0
2017-06-04T23:38:53.675Z,0
2017-06-04T23:39:34.192Z,0
2017-06-04T23:40:14.696Z,0
2017-06-04T23:40:55.873Z,0
2017-06-04T23:41:36.350Z,0
2017-06-04T23:42:16.862Z,0
2017-06-04T23:42:57.346Z,0
2017-06-04T23:43:37.876Z,0
2017-06-04T23:44:18.429Z,0
2017-06-04T23:44:58.929Z,0
2017-06-04T23:45:39.408Z,0
2017-06-04T23:46:19.934Z,0
2017-06-04T23:47:00.441Z,0
2017-06-04T23:47:40.903Z,0
2017-06-04T23:48:21.399Z,0
2017-06-04T23:49:01.891Z,0
2017-06-04T23:49:42.498Z,0
2017-06-04T23:50:22.980Z,0
2017-06-04T23:51:03.527Z,0
2017-06-04T23:51:44.005Z,0
2017-06-04T23:52:24.504Z,0
2017-06-04T23:53:05.000Z,0
2017-06-04T23:53:45.513Z,0
2017-06-04T23:54:26.000Z,0
2017-06-04T23:55:06.508Z,0
2017-06-04T23:55:46.993Z,0
2017-06-04T23:56:27.507Z,0
2017-06-04T23:57:08.049Z,0
2017-06-04T23:57:48.572Z,0
2017-06-04T23:58:29.065Z,0
2017-06-04T23:59:09.611Z,0
2017-06-04T23:59:50.102Z,0
